Time;durP1;ratioP1;P1;durP2;ratioP2;P2;SDS_P1;SDS_P2;PMS_P1;PMS_P2;Temp;Humidity;BMP_temperature;BMP_pressure;BME280_temperature;BME280_humidity;BME280_pressure;Samples;Min_cycle;Max_cycle;Signal;HPM_P1;HPM_P2
2022/04/04 00:02:12;;;;;;;;;;;;;;;1.66;59.27;100113.25;4436988;32;26772;-87
2022/04/04 00:04:37;;;;;;;;;;;;;;;1.54;59.26;100121.66;4450505;32;20372;-87
2022/04/04 00:07:02;;;;;;;;;;;;;;;1.63;59.26;100120.88;4445914;32;20046;-88
2022/04/04 00:09:28;;;;;;;;;;;;;;;1.48;59.26;100127.59;4450913;32;20043;-89
2022/04/04 00:11:53;;;;;;;;;;;;;;;1.67;59.26;100127.78;4432798;32;20412;-88
2022/04/04 00:14:18;;;;;;;;;;;;;;;1.81;59.28;100118.50;4425359;32;19988;-88
2022/04/04 00:16:44;;;;;;;;;;;;;;;1.66;59.26;100124.34;4444700;32;20024;-87
2022/04/04 00:19:09;;;;;;;;;;;;;;;1.53;59.25;100125.94;4438120;32;20001;-88
2022/04/04 00:21:34;;;;;;;;;;;;;;;1.72;59.27;100126.13;4424292;32;20368;-88
2022/04/04 00:23:59;;;;;;;;;;;;;;;1.51;59.26;100132.75;4446726;32;20262;-88
2022/04/04 00:26:25;;;;;;;;;;;;;;;1.68;59.26;100129.50;4424920;32;24803;-88
2022/04/04 00:28:50;;;;;;;;;;;;;;;1.60;59.26;100126.84;4432778;32;19993;-87
2022/04/04 00:31:16;;;;;;;;;;;;;;;1.68;59.26;100130.38;4439242;32;19997;-87
2022/04/04 00:33:41;;;;;;;;;;;;;;;1.51;59.26;100129.31;4444761;32;19981;-87
2022/04/04 00:36:07;;;;;;;;;;;;;;;1.48;59.26;100127.59;4438006;32;19993;-86
2022/04/04 00:38:32;;;;;;;;;;;;;;;1.48;59.26;100127.59;4425218;32;20019;-87
2022/04/04 00:40:57;;;;;;;;;;;;;;;1.59;59.26;100124.25;4445580;32;27677;-87
2022/04/04 00:43:22;;;;;;;;;;;;;;;1.64;59.26;100128.59;4425050;32;19981;-87
2022/04/04 00:45:49;;;;;;;;;;;;;;;1.58;59.26;100128.53;4445351;32;20012;-89
2022/04/04 00:48:14;;;;;;;;;;;;;;;1.60;59.26;100126.84;4439155;32;20622;-89
2022/04/04 00:50:39;;;;;;;;;;;;;;;1.48;59.26;100122.47;4439019;32;20012;-89
2022/04/04 00:53:07;;;;;;;;;;;;;;;1.42;59.26;100126.62;4440766;32;19973;-89
2022/04/04 00:55:32;;;;;;;;;;;;;;;1.42;59.26;100124.97;4438418;32;20349;-89
2022/04/04 00:57:57;;;;;;;;;;;;;;;1.34;59.25;100120.56;4447862;32;20068;-90
2022/04/04 01:00:22;;;;;;;;;;;;;;;1.40;59.26;100118.94;4426650;32;20244;-89
2022/04/04 01:02:48;;;;;;;;;;;;;;;1.41;59.26;100117.22;4433659;32;19996;-90
2022/04/04 01:05:13;;;;;;;;;;;;;;;1.39;59.25;100121.47;4439049;32;19989;-89
2022/04/04 01:07:40;;;;;;;;;;;;;;;1.48;59.26;100127.59;4439126;32;19989;-90
2022/04/04 01:10:06;;;;;;;;;;;;;;;1.54;59.25;100121.66;4435324;32;20683;-89
2022/04/04 01:12:31;;;;;;;;;;;;;;;1.44;59.25;100123.28;4426179;32;19989;-89
2022/04/04 01:14:56;;;;;;;;;;;;;;;1.55;59.27;100123.38;4434538;32;19981;-90
2022/04/04 01:17:22;;;;;;;;;;;;;;;1.36;59.25;100124.00;4439184;32;19985;-89
2022/04/04 01:19:47;;;;;;;;;;;;;;;1.37;59.24;100121.47;4433297;32;20427;-90
2022/04/04 01:22:13;;;;;;;;;;;;;;;1.45;59.25;100125.00;4426160;32;19994;-89
2022/04/04 01:24:38;;;;;;;;;;;;;;;1.49;59.26;100126.75;4451651;32;20089;-88
2022/04/04 01:27:04;;;;;;;;;;;;;;;1.46;59.25;100131.84;4434459;32;20356;-87
2022/04/04 01:29:29;;;;;;;;;;;;;;;1.40;59.26;100131.75;4425884;32;19974;-89
2022/04/04 01:31:54;;;;;;;;;;;;;;;1.46;59.25;100130.97;4433631;32;22889;-87
2022/04/04 01:34:20;;;;;;;;;;;;;;;1.50;59.26;100136.16;4438564;32;20040;-87
2022/04/04 01:36:46;;;;;;;;;;;;;;;1.46;59.25;100138.69;4445813;32;20267;-88
2022/04/04 01:39:11;;;;;;;;;;;;;;;1.51;59.26;100139.59;4438707;32;19981;-87
2022/04/04 01:41:36;;;;;;;;;;;;;;;1.46;59.25;100130.97;4425655;32;19969;-87
2022/04/04 01:44:01;;;;;;;;;;;;;;;1.46;59.25;100134.41;4447386;32;19985;-87
2022/04/04 01:46:27;;;;;;;;;;;;;;;1.44;59.25;100133.53;4438570;32;20002;-87
2022/04/04 01:48:58;;;;;;;;;;;;;;;1.37;59.25;100139.41;4425805;32;20030;-87
2022/04/04 01:51:23;;;;;;;;;;;;;;;1.37;59.25;100133.44;4436765;32;20396;-87
2022/04/04 01:53:48;;;;;;;;;;;;;;;1.34;59.25;100131.69;4439801;32;19969;-87
2022/04/04 01:56:13;;;;;;;;;;;;;;;1.37;59.25;100130.88;4448705;32;19997;-87
2022/04/04 01:58:39;;;;;;;;;;;;;;;1.25;59.25;100134.16;4425302;32;20058;-87
2022/04/04 02:01:14;;;;;;;;;;;;;;;1.18;59.23;100137.47;4447677;32;20024;-86
2022/04/04 02:03:39;;;;;;;;;;;;;;;1.20;59.24;100130.69;4425621;32;19990;-86
2022/04/04 02:06:05;;;;;;;;;;;;;;;1.20;59.24;100136.69;4447677;32;19985;-86
2022/04/04 02:08:31;;;;;;;;;;;;;;;1.20;59.24;100139.25;4413116;32;20037;-85
2022/04/04 02:10:56;;;;;;;;;;;;;;;1.15;59.24;100142.56;4433766;32;19974;-87
2022/04/04 02:13:25;;;;;;;;;;;;;;;1.04;59.24;100133.91;4439375;32;25385;-87
2022/04/04 02:15:51;;;;;;;;;;;;;;;1.15;59.24;100138.31;4439905;32;20005;-86
2022/04/04 02:18:16;;;;;;;;;;;;;;;0.92;59.23;100132.03;4425742;32;19992;-86
2022/04/04 02:20:41;;;;;;;;;;;;;;;1.01;59.22;100137.28;4432306;32;20040;-85
2022/04/04 02:23:07;;;;;;;;;;;;;;;0.89;59.22;100130.28;4425409;32;19981;-85
2022/04/04 02:25:32;;;;;;;;;;;;;;;0.90;59.22;100131.16;4437315;32;20000;-85
2022/04/04 02:27:57;;;;;;;;;;;;;;;0.98;59.23;100128.72;4446554;32;20030;-85
2022/04/04 02:30:22;;;;;;;;;;;;;;;0.88;59.22;100131.13;4438124;32;20023;-85
2022/04/04 02:32:48;;;;;;;;;;;;;;;0.78;59.22;100131.00;4439255;32;19988;-85
2022/04/04 02:35:13;;;;;;;;;;;;;;;0.91;59.22;100133.72;4439281;32;20042;-85
2022/04/04 02:37:38;;;;;;;;;;;;;;;0.79;59.21;100143.84;4424479;32;33507;-85
2022/04/04 02:40:05;;;;;;;;;;;;;;;0.78;59.22;100141.25;4443349;32;19989;-85
2022/04/04 02:42:31;;;;;;;;;;;;;;;0.77;59.22;100140.41;4444329;32;19995;-86
2022/04/04 02:44:56;;;;;;;;;;;;;;;0.83;59.22;100140.47;4444345;32;19981;-86
2022/04/04 02:47:21;;;;;;;;;;;;;;;0.82;59.22;100135.31;4453952;32;20025;-85
2022/04/04 02:49:47;;;;;;;;;;;;;;;0.82;59.22;100130.19;4437154;32;20032;-85
2022/04/04 02:52:12;;;;;;;;;;;;;;;0.79;59.22;100135.28;4444150;32;20325;-85
2022/04/04 02:54:37;;;;;;;;;;;;;;;0.84;59.22;100133.66;4443981;32;20022;-84
2022/04/04 02:57:03;;;;;;;;;;;;;;;0.72;59.21;100147.16;4444176;32;19993;-86
2022/04/04 02:59:28;;;;;;;;;;;;;;;0.66;59.22;100147.06;4441506;32;19990;-86
2022/04/04 03:01:53;;;;;;;;;;;;;;;0.64;59.21;100145.31;4444034;32;19996;-86
2022/04/04 03:04:18;;;;;;;;;;;;;;;0.47;59.20;100139.94;4444098;32;19990;-85
2022/04/04 03:06:44;;;;;;;;;;;;;;;0.45;59.20;100147.59;4449497;32;20264;-86
2022/04/04 03:09:09;;;;;;;;;;;;;;;0.46;59.20;100149.31;4430058;32;19995;-86
2022/04/04 03:11:34;;;;;;;;;;;;;;;0.40;59.19;100146.69;4454715;32;20070;-85
2022/04/04 03:14:00;;;;;;;;;;;;;;;0.38;59.20;100152.63;4451071;32;19989;-85
2022/04/04 03:16:25;;;;;;;;;;;;;;;0.12;59.18;100155.63;4443929;32;19978;-86
2022/04/04 03:18:53;;;;;;;;;;;;;;;0.19;59.18;100154.88;4437340;32;19969;-86
2022/04/04 03:21:18;;;;;;;;;;;;;;;0.14;59.18;100156.50;4429878;32;19989;-87
2022/04/04 03:23:43;;;;;;;;;;;;;;;-0.02;59.17;100152.81;4448904;32;23856;-88
2022/04/04 03:26:08;;;;;;;;;;;;;;;-0.02;59.16;100160.50;4429746;32;19978;-87
2022/04/04 03:28:34;;;;;;;;;;;;;;;0.11;59.18;100158.16;4454862;32;20019;-88
2022/04/04 03:30:59;;;;;;;;;;;;;;;0.14;59.18;100158.22;4438150;32;20349;-88
2022/04/04 03:33:24;;;;;;;;;;;;;;;0.15;59.17;100160.78;4441990;32;20313;-87
2022/04/04 03:35:49;;;;;;;;;;;;;;;0.09;59.17;100159.84;4443448;32;20004;-87
2022/04/04 03:38:15;;;;;;;;;;;;;;;0.05;59.17;100161.50;4429400;32;20062;-87
2022/04/04 03:40:40;;;;;;;;;;;;;;;0.03;59.17;100162.31;4429449;32;20000;-87
2022/04/04 03:43:06;;;;;;;;;;;;;;;-0.01;59.17;100164.78;4451441;32;20007;-87
2022/04/04 03:45:31;;;;;;;;;;;;;;;-0.11;59.17;100162.91;4429419;32;20079;-87
2022/04/04 03:47:56;;;;;;;;;;;;;;;-0.05;59.17;100164.72;4442550;32;31940;-88
2022/04/04 03:50:22;;;;;;;;;;;;;;;-0.18;59.16;100168.75;4438694;32;20259;-88
2022/04/04 03:52:47;;;;;;;;;;;;;;;-0.13;59.17;100168.84;4446528;32;20375;-86
2022/04/04 03:55:13;;;;;;;;;;;;;;;-0.24;59.16;100165.22;4440609;32;20303;-87
2022/04/04 03:57:38;;;;;;;;;;;;;;;-0.48;59.14;100170.72;4451865;32;19973;-86
2022/04/04 04:00:05;;;;;;;;;;;;;;;-0.42;59.15;100176.00;4448219;32;20351;-88
2022/04/04 04:02:30;;;;;;;;;;;;;;;-0.40;59.15;100177.75;4426231;32;20380;-86
2022/04/04 04:04:55;;;;;;;;;;;;;;;-0.47;59.14;100186.13;4434442;32;20025;-85
2022/04/04 04:07:24;;;;;;;;;;;;;;;-0.40;59.15;100171.75;4426348;32;19965;-89
2022/04/04 04:09:49;;;;;;;;;;;;;;;-0.32;59.15;100175.31;4446700;32;19977;-89
2022/04/04 04:12:15;;;;;;;;;;;;;;;-0.40;59.15;100179.44;4425844;32;20039;-86
2022/04/04 04:14:41;;;;;;;;;;;;;;;-0.39;59.14;100179.47;4432898;32;20098;-86
2022/04/04 04:17:06;;;;;;;;;;;;;;;-0.53;59.14;100188.56;4439655;32;19982;-87
2022/04/04 04:22:15;;;;;;;;;;;;;;;-0.38;59.15;100185.44;4447046;32;20000;-86
2022/04/04 04:24:40;;;;;;;;;;;;;;;-0.33;59.15;100173.59;4439428;32;29572;-87
2022/04/04 04:27:06;;;;;;;;;;;;;;;-0.38;59.14;100182.87;4439540;32;21972;-87
2022/04/04 04:29:32;;;;;;;;;;;;;;;-0.34;59.15;100172.72;4425681;32;19997;-86
2022/04/04 04:31:57;;;;;;;;;;;;;;;-0.36;59.15;100174.41;4446829;32;20057;-87
2022/04/04 04:34:22;;;;;;;;;;;;;;;-0.41;59.15;100178.56;4425347;32;21657;-87
2022/04/04 04:36:48;;;;;;;;;;;;;;;-0.46;59.14;100174.22;4432796;32;21035;-87
2022/04/04 04:39:13;;;;;;;;;;;;;;;-0.48;59.14;100176.72;4440066;32;19970;-87
2022/04/04 04:41:38;;;;;;;;;;;;;;;-0.55;59.14;100184.25;4439653;32;19978;-86
2022/04/04 04:44:05;;;;;;;;;;;;;;;-0.52;59.14;100182.59;4447655;32;20310;-87
2022/04/04 04:46:30;;;;;;;;;;;;;;;-0.39;59.15;100187.13;4425662;32;20073;-87
2022/04/04 04:48:56;;;;;;;;;;;;;;;-0.60;59.13;100191.81;4433953;32;20050;-86
2022/04/04 04:51:21;;;;;;;;;;;;;;;-0.42;59.15;100187.06;4426054;32;20036;-87
2022/04/04 04:53:46;;;;;;;;;;;;;;;-0.31;59.15;100187.28;4432992;32;19982;-86
2022/04/04 04:56:11;;;;;;;;;;;;;;;-0.37;59.15;100190.56;4425189;32;28359;-87
2022/04/04 04:58:37;;;;;;;;;;;;;;;-0.25;59.16;100191.62;4437991;32;20001;-88
2022/04/04 05:01:02;;;;;;;;;;;;;;;-0.22;59.15;100190.00;4434552;32;20348;-86
2022/04/04 05:03:27;;;;;;;;;;;;;;;-0.30;59.15;100189.00;4437189;32;20026;-87
2022/04/04 05:05:53;;;;;;;;;;;;;;;-0.11;59.17;100191.06;4446454;32;19965;-87
2022/04/04 05:08:18;;;;;;;;;;;;;;;-0.04;59.17;100187.75;4425583;32;19981;-86
2022/04/04 05:10:44;;;;;;;;;;;;;;;0.04;59.17;100189.63;4432545;32;20028;-86
2022/04/04 05:13:09;;;;;;;;;;;;;;;-0.02;59.17;100195.47;4438167;32;20274;-86
2022/04/04 05:15:34;;;;;;;;;;;;;;;0.36;59.19;100190.16;4425438;32;20007;-87
2022/04/04 05:17:59;;;;;;;;;;;;;;;0.58;59.20;100194.75;4439578;32;20329;-86
2022/04/04 05:20:25;;;;;;;;;;;;;;;0.59;59.21;100188.81;4449677;32;20033;-86
2022/04/04 05:22:50;;;;;;;;;;;;;;;0.57;59.20;100193.91;4445882;32;20017;-87
2022/04/04 05:25:15;;;;;;;;;;;;;;;0.64;59.21;100194.00;4425776;32;20314;-87
2022/04/04 05:27:41;;;;;;;;;;;;;;;0.80;59.21;100195.94;4444857;32;24616;-87
2022/04/04 05:30:07;;;;;;;;;;;;;;;0.92;59.23;100196.09;4438459;32;19993;-86
2022/04/04 05:32:32;;;;;;;;;;;;;;;1.21;59.24;100193.94;4413002;32;20037;-86
2022/04/04 05:34:58;;;;;;;;;;;;;;;1.30;59.25;100193.19;4424851;32;27760;-86
2022/04/04 05:37:23;;;;;;;;;;;;;;;1.46;59.25;100195.97;4449801;32;20000;-87
2022/04/04 05:39:48;;;;;;;;;;;;;;;1.64;59.27;100189.31;4425933;32;19989;-87
2022/04/04 05:42:13;;;;;;;;;;;;;;;1.67;59.27;100199.63;4439843;32;19978;-86
2022/04/04 05:44:38;;;;;;;;;;;;;;;1.78;59.28;100193.75;4440047;32;20293;-86
2022/04/04 05:47:04;;;;;;;;;;;;;;;1.79;59.28;100197.19;4447344;32;25208;-86
2022/04/04 05:49:29;;;;;;;;;;;;;;;1.95;59.28;100203.34;4413236;32;20001;-87
2022/04/04 05:51:55;;;;;;;;;;;;;;;2.09;59.29;100200.03;4440097;32;20008;-86
2022/04/04 05:54:20;;;;;;;;;;;;;;;2.07;59.29;100201.75;4440187;32;20275;-86
2022/04/04 05:56:45;;;;;;;;;;;;;;;2.40;59.30;100197.75;4445460;32;19990;-86
2022/04/04 05:59:12;;;;;;;;;;;;;;;2.13;59.29;100203.53;4425204;32;24696;-86
2022/04/04 06:01:37;;;;;;;;;;;;;;;2.37;59.31;100197.75;4437978;32;20441;-86
2022/04/04 06:04:03;;;;;;;;;;;;;;;2.52;59.32;100200.41;4447062;32;20008;-86
2022/04/04 06:06:28;;;;;;;;;;;;;;;2.63;59.32;100198.81;4425600;32;20043;-86
2022/04/04 06:08:54;;;;;;;;;;;;;;;2.80;59.32;100198.03;4425598;32;20001;-87
2022/04/04 06:11:19;;;;;;;;;;;;;;;2.76;59.33;100208.31;4449079;32;20330;-86
2022/04/04 06:13:44;;;;;;;;;;;;;;;2.83;59.34;100206.63;4443795;32;30887;-86
2022/04/04 06:16:09;;;;;;;;;;;;;;;2.85;59.33;100212.66;4438101;32;20005;-86
2022/04/04 06:18:35;;;;;;;;;;;;;;;3.13;59.35;100215.41;4425636;32;20354;-86
2022/04/04 06:21:02;;;;;;;;;;;;;;;3.08;59.35;100212.81;4446947;32;20027;-87
2022/04/04 06:23:28;;;;;;;;;;;;;;;3.14;59.35;100217.97;4438454;32;20000;-86
2022/04/04 06:25:53;;;;;;;;;;;;;;;3.35;59.36;100219.81;4432971;32;20052;-86
2022/04/04 06:28:18;;;;;;;;;;;;;;;3.12;59.35;100219.69;4424879;32;25868;-86
2022/04/04 06:30:44;;;;;;;;;;;;;;;3.54;59.38;100218.16;4432268;32;20001;-86
2022/04/04 06:33:09;;;;;;;;;;;;;;;3.73;59.39;100219.94;4425172;32;20028;-86
2022/04/04 06:35:35;;;;;;;;;;;;;;;3.74;59.38;100216.50;4450425;32;20001;-86
2022/04/04 06:38:01;;;;;;;;;;;;;;;3.78;59.39;100213.06;4433865;32;20001;-87
2022/04/04 06:40:27;;;;;;;;;;;;;;;3.88;59.39;100212.25;4425366;32;20131;-87
2022/04/04 06:42:52;;;;;;;;;;;;;;;3.93;59.39;100218.28;4439141;32;20004;-87
2022/04/04 06:45:17;;;;;;;;;;;;;;;4.13;59.41;100220.03;4425044;32;20318;-86
2022/04/04 06:47:43;;;;;;;;;;;;;;;4.32;59.41;100216.63;4438566;32;28155;-87
2022/04/04 06:50:08;;;;;;;;;;;;;;;4.49;59.44;100217.47;4434268;32;20306;-87
2022/04/04 06:52:33;;;;;;;;;;;;;;;4.59;59.44;100216.63;4437797;32;19992;-87
2022/04/04 06:54:59;;;;;;;;;;;;;;;4.63;59.44;100217.47;4445831;32;20310;-86
2022/04/04 06:57:25;;;;;;;;;;;;;;;4.83;59.45;100210.59;4439066;32;20054;-87
2022/04/04 06:59:50;;;;;;;;;;;;;;;4.96;59.46;100228.62;4432173;32;20223;-87
2022/04/04 07:02:15;;;;;;;;;;;;;;;4.99;59.46;100221.75;4438877;32;20001;-87
2022/04/04 07:04:41;;;;;;;;;;;;;;;5.00;59.46;100215.72;4431488;32;20310;-86
2022/04/04 07:07:07;;;;;;;;;;;;;;;5.19;59.47;100213.94;4425300;32;20001;-87
2022/04/04 07:09:32;;;;;;;;;;;;;;;5.28;59.47;100219.09;4436978;32;20340;-87
2022/04/04 07:11:57;;;;;;;;;;;;;;;5.04;59.46;100217.44;4433176;32;19989;-86
2022/04/04 07:14:24;;;;;;;;;;;;;;;5.11;59.47;100215.69;4424782;32;20286;-86
2022/04/04 07:16:52;;;;;;;;;;;;;;;5.05;59.46;100211.41;4445292;32;19993;-87
2022/04/04 07:19:17;;;;;;;;;;;;;;;5.34;59.48;100213.06;4438988;32;19978;-87
2022/04/04 07:21:43;;;;;;;;;;;;;;;5.36;59.47;100216.47;4438340;32;25887;-87
2022/04/04 07:24:08;;;;;;;;;;;;;;;5.46;59.49;100213.87;4434135;32;20025;-86
2022/04/04 07:26:33;;;;;;;;;;;;;;;5.44;59.48;100219.87;4439685;32;19986;-87
2022/04/04 07:28:58;;;;;;;;;;;;;;;5.59;59.49;100214.66;4435385;32;19977;-87
2022/04/04 07:31:24;;;;;;;;;;;;;;;5.54;59.49;100211.25;4439693;32;19973;-87
2022/04/04 07:33:49;;;;;;;;;;;;;;;5.59;59.49;100217.25;4433946;32;20006;-87
2022/04/04 07:36:14;;;;;;;;;;;;;;;5.75;59.50;100205.12;4440646;32;20027;-87
2022/04/04 07:38:40;;;;;;;;;;;;;;;5.76;59.50;100212.88;4440607;32;19969;-87
2022/04/04 07:41:05;;;;;;;;;;;;;;;5.59;59.49;100217.25;4440639;32;20083;-86
2022/04/04 07:43:30;;;;;;;;;;;;;;;5.83;59.51;100209.38;4440669;32;20243;-86
2022/04/04 07:45:56;;;;;;;;;;;;;;;6.01;59.52;100207.59;4440592;32;19977;-86
2022/04/04 07:48:21;;;;;;;;;;;;;;;5.97;59.51;100203.31;4440703;32;20021;-87
2022/04/04 07:50:46;;;;;;;;;;;;;;;6.11;59.52;100207.53;4440666;32;19969;-87
2022/04/04 07:53:12;;;;;;;;;;;;;;;6.00;59.52;100205.88;4439907;32;27414;-87
2022/04/04 07:55:38;;;;;;;;;;;;;;;5.94;59.51;100206.78;4452052;32;19997;-87
2022/04/04 07:58:03;;;;;;;;;;;;;;;5.95;59.51;100200.75;4447742;32;26660;-86
2022/04/04 08:00:29;;;;;;;;;;;;;;;5.94;59.51;100203.34;4413768;32;20258;-87
2022/04/04 08:02:54;;;;;;;;;;;;;;;6.04;59.52;100207.56;4447183;32;19978;-86
2022/04/04 08:05:19;;;;;;;;;;;;;;;6.10;59.52;100200.63;4439280;32;19981;-86
2022/04/04 08:07:47;;;;;;;;;;;;;;;6.18;59.52;100200.59;4446312;32;20418;-87
2022/04/04 08:10:13;;;;;;;;;;;;;;;6.13;59.52;100200.59;4426912;32;20409;-87
2022/04/04 08:12:38;;;;;;;;;;;;;;;6.35;59.54;100200.47;4438922;32;20017;-86
2022/04/04 08:15:03;;;;;;;;;;;;;;;6.27;59.53;100199.66;4434702;32;23865;-87
2022/04/04 08:17:29;;;;;;;;;;;;;;;6.32;59.53;100192.72;4438960;32;20022;-86
2022/04/04 08:19:54;;;;;;;;;;;;;;;6.17;59.52;100196.31;4447381;32;19974;-86
2022/04/04 08:22:20;;;;;;;;;;;;;;;6.39;59.53;100194.41;4426048;32;20035;-88
2022/04/04 08:24:45;;;;;;;;;;;;;;;6.56;59.54;100186.50;4440487;32;20000;-87
2022/04/04 08:27:10;;;;;;;;;;;;;;;6.85;59.56;100194.84;4440357;32;20355;-86
2022/04/04 08:29:36;;;;;;;;;;;;;;;7.04;59.57;100192.94;4451530;32;19977;-87
2022/04/04 08:32:01;;;;;;;;;;;;;;;7.06;59.57;100184.28;4435050;32;19994;-87
2022/04/04 08:34:28;;;;;;;;;;;;;;;7.08;59.57;100189.44;4426343;32;19985;-87
2022/04/04 08:36:53;;;;;;;;;;;;;;;7.21;59.58;100187.56;4446820;32;19992;-86
2022/04/04 08:39:19;;;;;;;;;;;;;;;7.08;59.57;100177.34;4439872;32;27069;-87
2022/04/04 08:41:44;;;;;;;;;;;;;;;7.20;59.58;100185.87;4440055;32;19989;-87
2022/04/04 08:44:09;;;;;;;;;;;;;;;7.31;59.58;100182.25;4426088;32;20030;-86
2022/04/04 08:46:35;;;;;;;;;;;;;;;7.68;59.60;100176.63;4440407;32;20451;-87
2022/04/04 08:49:02;;;;;;;;;;;;;;;7.46;59.59;100168.28;4440305;32;19966;-87
2022/04/04 08:51:27;;;;;;;;;;;;;;;7.44;59.59;100174.34;4450463;32;20032;-87
2022/04/04 08:53:53;;;;;;;;;;;;;;;7.49;59.60;100164.78;4440281;32;20315;-87
2022/04/04 08:56:20;;;;;;;;;;;;;;;7.51;59.60;100163.88;4449663;32;20355;-87
2022/04/04 08:58:45;;;;;;;;;;;;;;;7.62;59.61;100159.44;4433180;32;20455;-87
2022/04/04 09:01:10;;;;;;;;;;;;;;;7.52;59.60;100151.78;4439631;32;25684;-87
2022/04/04 09:03:36;;;;;;;;;;;;;;;7.59;59.60;100161.22;4439867;32;19974;-88
2022/04/04 09:06:03;;;;;;;;;;;;;;;7.63;59.61;100158.56;4447513;32;19985;-87
2022/04/04 09:08:28;;;;;;;;;;;;;;;7.66;59.61;100147.31;4413501;32;20370;-88
2022/04/04 09:10:54;;;;;;;;;;;;;;;7.92;59.63;100146.91;4446835;32;19982;-88
2022/04/04 09:13:20;;;;;;;;;;;;;;;8.15;59.64;100138.78;4426107;32;19989;-88
2022/04/04 09:15:52;;;;;;;;;;;;;;;8.16;59.64;100140.50;4445861;32;20063;-88
2022/04/04 09:18:17;;;;;;;;;;;;;;;8.09;59.64;100136.31;4413461;32;20012;-87
2022/04/04 09:20:49;;;;;;;;;;;;;;;8.42;59.64;100124.53;4445529;32;19989;-87
2022/04/04 09:23:15;;;;;;;;;;;;;;;8.72;59.67;100115.34;4440109;32;19981;-87
2022/04/04 09:25:40;;;;;;;;;;;;;;;8.69;59.67;100113.66;4436234;32;19988;-88
2022/04/04 09:28:15;;;;;;;;;;;;;;;8.58;59.65;100113.88;4423104;32;22920;-87
2022/04/04 09:30:41;;;;;;;;;;;;;;;8.59;59.67;100112.13;4442731;32;19993;-87
2022/04/04 09:33:06;;;;;;;;;;;;;;;8.80;59.67;100106.56;4410512;32;20037;-88
2022/04/04 09:35:32;;;;;;;;;;;;;;;9.15;59.69;100102.38;4448584;32;19985;-88
2022/04/04 09:37:58;;;;;;;;;;;;;;;9.27;59.70;100093.50;4433993;32;19981;-88
2022/04/04 09:40:24;;;;;;;;;;;;;;;9.20;59.70;100098.81;4438329;32;19993;-88
2022/04/04 09:42:50;;;;;;;;;;;;;;;9.18;59.69;100099.72;4446114;32;19993;-88
2022/04/04 09:45:16;;;;;;;;;;;;;;;9.18;59.69;100086.75;4439854;32;20032;-88
2022/04/04 09:47:48;;;;;;;;;;;;;;;9.35;59.71;100091.59;4445195;32;19973;-87
2022/04/04 09:50:32;;;;;;;;;;;;;;;9.58;59.72;100080.69;4412487;32;19989;-87
2022/04/04 09:52:58;;;;;;;;;;;;;;;9.63;59.72;100076.22;4439917;32;20041;-88
2022/04/04 09:55:30;;;;;;;;;;;;;;;9.50;59.72;100073.06;4449751;32;20019;-88
2022/04/04 09:57:59;;;;;;;;;;;;;;;9.78;59.72;100071.53;4433938;32;19993;-89
2022/04/04 10:00:25;;;;;;;;;;;;;;;10.19;59.75;100077.50;4412922;32;20349;-88
2022/04/04 10:02:51;;;;;;;;;;;;;;;10.08;59.74;100069.94;4433129;32;20032;-88
2022/04/04 10:05:16;;;;;;;;;;;;;;;9.71;59.72;100061.34;4439636;32;19969;-88
2022/04/04 10:07:42;;;;;;;;;;;;;;;9.68;59.72;100059.62;4439703;32;20026;-88
2022/04/04 10:10:07;;;;;;;;;;;;;;;9.71;59.72;100056.12;4447386;32;23763;-88
2022/04/04 10:12:35;;;;;;;;;;;;;;;9.80;59.74;100054.16;4438315;32;19985;-87
2022/04/04 10:15:03;;;;;;;;;;;;;;;10.03;59.74;100055.34;4434294;32;20049;-89
2022/04/04 10:17:29;;;;;;;;;;;;;;;10.36;59.76;100051.03;4412825;32;19986;-88
2022/04/04 10:19:54;;;;;;;;;;;;;;;10.43;59.76;100053.47;4446355;32;20000;-89
2022/04/04 10:22:19;;;;;;;;;;;;;;;10.34;59.76;100050.25;4437617;32;30856;-87
2022/04/04 10:24:45;;;;;;;;;;;;;;;10.28;59.75;100043.44;4445261;32;19966;-88
2022/04/04 10:27:12;;;;;;;;;;;;;;;10.27;59.76;100033.94;4438300;32;19969;-88
2022/04/04 10:29:38;;;;;;;;;;;;;;;10.38;59.76;100033.66;4425575;32;19985;-88
2022/04/04 10:32:05;;;;;;;;;;;;;;;10.48;59.77;100029.91;4439492;32;19993;-88
2022/04/04 10:34:30;;;;;;;;;;;;;;;10.73;59.78;100017.94;4439344;32;20000;-88
2022/04/04 10:37:03;;;;;;;;;;;;;;;11.02;59.80;100024.91;4446231;32;20357;-89
2022/04/04 10:39:32;;;;;;;;;;;;;;;11.37;59.82;100018.62;4425384;32;20001;-87
2022/04/04 10:41:57;;;;;;;;;;;;;;;11.43;59.82;100016.72;4439285;32;20453;-89
2022/04/04 10:44:42;;;;;;;;;;;;;;;11.42;59.82;100008.06;4438723;32;20728;-88
2022/04/04 10:47:18;;;;;;;;;;;;;;;11.37;59.83;100005.59;4439481;32;20318;-89
2022/04/04 10:49:44;;;;;;;;;;;;;;;11.41;59.82;100000.28;4436546;32;19986;-88
2022/04/04 10:52:09;;;;;;;;;;;;;;;11.74;59.83;99991.38;4422798;32;19985;-88
2022/04/04 10:54:34;;;;;;;;;;;;;;;11.44;59.82;100000.19;4435977;32;19977;-88
2022/04/04 10:56:59;;;;;;;;;;;;;;;11.36;59.81;99997.84;4433331;32;19981;-89
2022/04/04 10:59:25;;;;;;;;;;;;;;;11.27;59.81;100000.72;4425189;32;20379;-89
2022/04/04 11:01:56;;;;;;;;;;;;;;;11.31;59.82;99999.72;4447235;32;20016;-88
2022/04/04 11:04:29;;;;;;;;;;;;;;;11.50;59.82;99992.16;4426970;32;19977;-88
2022/04/04 11:07:39;;;;;;;;;;;;;;;11.65;59.83;99986.47;4434784;32;20404;-89
2022/04/04 11:10:08;;;;;;;;;;;;;;;11.58;59.83;99992.75;4437466;32;19982;-88
2022/04/04 11:12:52;;;;;;;;;;;;;;;11.89;59.84;99977.87;4451903;32;20057;-89
2022/04/04 11:15:17;;;;;;;;;;;;;;;11.98;59.86;99977.53;4440978;32;19988;-89
2022/04/04 11:18:09;;;;;;;;;;;;;;;11.88;59.84;99976.16;4446520;32;19985;-89
2022/04/04 11:20:36;;;;;;;;;;;;;;;11.85;59.85;99978.03;4424268;32;20394;-88
2022/04/04 11:23:04;;;;;;;;;;;;;;;11.85;59.85;99973.66;4435297;32;19993;-88
2022/04/04 11:25:34;;;;;;;;;;;;;;;11.76;59.84;99980.88;4427025;32;19965;-89
2022/04/04 11:28:02;;;;;;;;;;;;;;;11.68;59.84;99978.53;4434727;32;20078;-88
2022/04/04 11:30:27;;;;;;;;;;;;;;;11.84;59.85;99979.78;4426775;32;20607;-88
2022/04/04 11:32:54;;;;;;;;;;;;;;;11.89;59.84;99975.25;4434393;32;20412;-88
2022/04/04 11:35:27;;;;;;;;;;;;;;;11.87;59.85;99968.41;4440880;32;19977;-88
2022/04/04 11:37:56;;;;;;;;;;;;;;;11.89;59.85;99969.19;4447485;32;19995;-88
2022/04/04 11:40:29;;;;;;;;;;;;;;;12.01;59.86;99957.47;4440835;32;19993;-89
2022/04/04 11:42:54;;;;;;;;;;;;;;;12.04;59.85;99957.38;4446823;32;19989;-88
2022/04/04 11:45:20;;;;;;;;;;;;;;;11.87;59.84;99958.81;4426612;32;19970;-89
2022/04/04 11:48:25;;;;;;;;;;;;;;;12.12;59.86;99952.75;4440674;32;20009;-88
2022/04/04 11:50:56;;;;;;;;;;;;;;;11.94;59.85;99962.06;4407711;32;19986;-88
2022/04/04 11:53:25;;;;;;;;;;;;;;;12.11;59.86;99951.03;4395425;32;19994;-88
2022/04/04 11:55:51;;;;;;;;;;;;;;;12.19;59.86;99952.47;4412203;32;19981;-89
2022/04/04 11:58:20;;;;;;;;;;;;;;;12.37;59.89;99947.50;4440611;32;19973;-88
2022/04/04 12:00:54;;;;;;;;;;;;;;;12.31;59.88;99939.91;4433145;32;19994;-89
2022/04/04 12:03:19;;;;;;;;;;;;;;;12.25;59.87;99938.34;4427407;32;20008;-88
2022/04/04 12:05:45;;;;;;;;;;;;;;;12.36;59.89;99927.53;4433295;32;19966;-88
2022/04/04 12:08:10;;;;;;;;;;;;;;;12.42;59.89;99925.53;4413635;32;20000;-89
2022/04/04 12:10:37;;;;;;;;;;;;;;;12.39;59.87;99922.19;4451749;32;20051;-88
2022/04/04 12:13:19;;;;;;;;;;;;;;;12.48;59.88;99919.22;4447613;32;20038;-88
2022/04/04 12:15:45;;;;;;;;;;;;;;;12.42;59.89;99922.94;4424074;32;19974;-88
2022/04/04 12:18:10;;;;;;;;;;;;;;;12.23;59.87;99919.28;4430225;32;20020;-89
2022/04/04 12:20:40;;;;;;;;;;;;;;;12.52;59.89;99903.38;4426129;32;20379;-88
2022/04/04 12:25:49;;;;;;;;;;;;;;;12.62;59.89;99900.47;4428549;32;19992;-89
2022/04/04 12:28:22;;;;;;;;;;;;;;;12.56;59.89;99891.09;4436440;32;19990;-88
2022/04/04 12:30:47;;;;;;;;;;;;;;;12.35;59.87;99881.47;4434842;32;20232;-89
2022/04/04 12:33:13;;;;;;;;;;;;;;;12.54;59.89;99878.09;4439713;32;26656;-89
2022/04/04 12:35:40;;;;;;;;;;;;;;;12.50;59.89;99870.41;4451758;32;19978;-89
2022/04/04 12:38:06;;;;;;;;;;;;;;;12.58;59.90;99869.25;4426349;32;20009;-89
2022/04/04 12:40:32;;;;;;;;;;;;;;;12.70;59.90;99867.91;4438165;32;19990;-88
2022/04/04 12:43:07;;;;;;;;;;;;;;;12.77;59.90;99852.84;4440228;32;20095;-89
2022/04/04 12:45:32;;;;;;;;;;;;;;;13.06;59.92;99844.72;4438059;32;19973;-89
2022/04/04 12:48:11;;;;;;;;;;;;;;;12.89;59.92;99849.75;4425934;32;20027;-90